Esler Regional Airport Alexandria US
ICAO: KESF
IATA: ESF
Category: Medium
Scheduled Services: No

Elevation: 112 ft
TransAlt. 18000 ft.

Airport Communications:
POLK APP/DEP:132.05
CTAF/UNICOM:122.8
ARNG OPS:141.45
DE RIDDER RDO:122.55

KESF Zoom In..

Runways:

(A) RW 09 length 5999 ft width 150 ft
---- / hdg 90

(B) RW 14 length 5601 ft width 150 ft
---- / hdg 144

(C) RW 27 length 5999 ft width 150 ft
ILS 111.50 / hdg 270

(D) RW 32 length 5601 ft width 150 ft
---- / hdg 324

Location; KESF
Day. 23 / Time. 02.53 Zulu
* Altimeter: 29.83
* Temperature: 28° c. 82.4°f.
* Wind from: 000° Speed 00 kn.
Dewpoint: 26° c.
Visibility: 10 Statute Miles.
Clouds: Clear (automated report).

KESF 230253Z AUTO 00000KT 10SM CLR 28/26 A2983 RMK AO2 SLP100 T02830256 50007 $


Wind - Calm.

 
 
jpsmedia.com for Web Design worldairports.se 2018   terms of use